Time;durP1;ratioP1;P1;durP2;ratioP2;P2;SDS_P1;SDS_P2;PMS_P1;PMS_P2;Temp;Humidity;BMP_temperature;BMP_pressure;BME280_temperature;BME280_humidity;BME280_pressure;Samples;Min_cycle;Max_cycle;Signal;HPM_P1;HPM_P2
2022/10/04 00:01:07;;;;;;;7.40;3.97;;;11.10;99.90;;;;;;5036098;28;20469;-81
2022/10/04 00:03:39;;;;;;;6.60;3.10;;;11.10;99.90;;;;;;5035826;28;20842;-81
2022/10/04 00:06:13;;;;;;;4.43;3.17;;;11.20;99.90;;;;;;5035445;28;20506;-80
2022/10/04 00:08:47;;;;;;;5.00;2.40;;;11.10;99.90;;;;;;5035455;28;20487;-80
2022/10/04 00:11:19;;;;;;;4.93;3.33;;;11.10;99.90;;;;;;5036086;28;20459;-80
2022/10/04 00:13:50;;;;;;;3.53;2.60;;;11.10;99.90;;;;;;5035450;28;20452;-81
2022/10/04 00:16:23;;;;;;;4.37;3.10;;;11.20;99.90;;;;;;5025443;28;20848;-81
2022/10/04 00:19:01;;;;;;;5.87;3.33;;;11.10;99.90;;;;;;5035913;28;20444;-81
2022/10/04 00:22:11;;;;;;;6.27;3.53;;;11.20;99.90;;;;;;5035491;28;20448;-80
2022/10/04 00:24:58;;;;;;;6.73;3.40;;;11.20;99.90;;;;;;5035746;28;20455;-81
2022/10/04 00:27:27;;;;;;;4.80;3.33;;;11.20;99.90;;;;;;5034992;28;21011;-81
2022/10/04 00:30:17;;;;;;;3.93;2.73;;;11.30;99.90;;;;;;5035021;28;20461;-80
2022/10/04 00:33:00;;;;;;;4.70;2.70;;;11.30;99.90;;;;;;5035597;28;20455;-81
2022/10/04 00:35:47;;;;;;;6.07;3.30;;;11.40;99.90;;;;;;5035242;28;20475;-80
2022/10/04 00:38:17;;;;;;;7.27;3.63;;;11.40;99.90;;;;;;5030736;28;20520;-81
2022/10/04 00:40:49;;;;;;;4.60;2.90;;;11.40;99.90;;;;;;5035404;28;20443;-80
2022/10/04 00:43:19;;;;;;;4.10;2.80;;;11.40;99.90;;;;;;5035030;28;20455;-81
2022/10/04 00:45:48;;;;;;;10.67;3.80;;;11.40;99.90;;;;;;5035718;28;20472;-81
2022/10/04 00:48:36;;;;;;;5.97;3.40;;;11.40;99.90;;;;;;5034015;28;20996;-80
2022/10/04 00:51:19;;;;;;;8.47;3.60;;;11.40;99.90;;;;;;5035758;28;20464;-81
2022/10/04 00:53:58;;;;;;;6.67;3.30;;;11.40;99.90;;;;;;5034920;28;20945;-81
2022/10/04 00:56:34;;;;;;;7.03;5.37;;;11.40;99.90;;;;;;5035028;28;20473;-82
2022/10/04 00:59:34;;;;;;;4.93;3.30;;;11.40;99.90;;;;;;5034372;28;20451;-81
2022/10/04 01:02:06;;;;;;;3.83;3.30;;;11.40;99.90;;;;;;5029854;28;20454;-81
2022/10/04 01:04:42;;;;;;;4.70;2.83;;;11.40;99.90;;;;;;5034496;28;20453;-82
2022/10/04 01:07:12;;;;;;;8.27;3.90;;;11.30;99.90;;;;;;5034576;28;20493;-81
2022/10/04 01:09:49;;;;;;;9.00;4.87;;;11.30;99.90;;;;;;5034584;28;20463;-81
2022/10/04 01:12:42;;;;;;;5.17;2.77;;;11.30;99.90;;;;;;5034725;28;20449;-81
2022/10/04 01:15:16;;;;;;;6.27;3.27;;;11.30;99.90;;;;;;5034099;28;20476;-83
2022/10/04 01:18:06;;;;;;;4.50;3.23;;;11.40;99.90;;;;;;5034526;28;20461;-83
2022/10/04 01:20:35;;;;;;;6.80;3.73;;;11.30;99.90;;;;;;5035358;28;20455;-81
2022/10/04 01:23:04;;;;;;;4.73;3.50;;;11.40;99.90;;;;;;5034210;28;20460;-82
2022/10/04 01:25:48;;;;;;;8.03;3.80;;;11.40;99.90;;;;;;5034154;28;20893;-81
2022/10/04 01:28:16;;;;;;;7.07;3.60;;;11.40;99.90;;;;;;5034268;28;20481;-81
2022/10/04 01:30:43;;;;;;;7.97;3.73;;;11.40;99.90;;;;;;5034656;28;20456;-81
2022/10/04 01:33:12;;;;;;;7.13;3.80;;;11.40;99.90;;;;;;5034486;28;20460;-81
2022/10/04 01:35:39;;;;;;;6.13;3.20;;;11.40;99.90;;;;;;5034363;28;20479;-81
2022/10/04 01:38:08;;;;;;;5.80;3.70;;;11.30;99.90;;;;;;5033905;28;20490;-80
2022/10/04 01:40:38;;;;;;;5.40;3.27;;;11.40;99.90;;;;;;5034185;28;20453;-80
2022/10/04 01:43:08;;;;;;;7.90;4.00;;;11.40;99.90;;;;;;5034185;28;20460;-80
2022/10/04 01:45:38;;;;;;;7.73;4.03;;;11.40;99.90;;;;;;5034057;28;20479;-81
2022/10/04 01:48:10;;;;;;;9.13;4.13;;;11.40;99.90;;;;;;5033761;28;20904;-80
2022/10/04 01:50:44;;;;;;;5.53;3.40;;;11.40;99.90;;;;;;5034405;28;20452;-81
2022/10/04 01:53:18;;;;;;;3.60;3.10;;;11.40;99.90;;;;;;5033712;28;20463;-81
2022/10/04 01:55:48;;;;;;;5.53;3.30;;;11.40;99.90;;;;;;5033783;28;20480;-81
2022/10/04 01:58:20;;;;;;;10.20;3.70;;;11.40;99.90;;;;;;5033316;28;20456;-80
2022/10/04 02:00:52;;;;;;;7.00;3.20;;;11.40;99.90;;;;;;5035045;28;20448;-82
2022/10/04 02:03:22;;;;;;;7.43;5.23;;;11.30;99.90;;;;;;5054007;28;20977;-81
2022/10/04 02:05:54;;;;;;;4.53;3.40;;;11.40;99.90;;;;;;5051915;28;20476;-81
2022/10/04 02:08:27;;;;;;;4.67;3.50;;;11.30;99.90;;;;;;5033175;28;20494;-82
2022/10/04 02:10:55;;;;;;;5.53;3.50;;;11.30;99.90;;;;;;5014165;28;20460;-81
2022/10/04 02:13:26;;;;;;;6.53;3.50;;;11.30;99.90;;;;;;5014028;28;20460;-83
2022/10/04 02:15:54;;;;;;;4.83;3.60;;;11.30;99.90;;;;;;5032800;28;20476;-81
2022/10/04 02:18:23;;;;;;;7.87;3.63;;;11.40;99.90;;;;;;5033774;28;20452;-82
2022/10/04 02:20:51;;;;;;;5.00;3.73;;;11.30;99.90;;;;;;5034188;28;20452;-81
2022/10/04 02:23:20;;;;;;;4.30;3.90;;;11.30;99.90;;;;;;5033027;28;20448;-80
2022/10/04 02:25:48;;;;;;;6.00;3.80;;;11.30;99.90;;;;;;5033864;28;20861;-80
2022/10/04 02:28:17;;;;;;;7.27;4.43;;;11.30;99.90;;;;;;5032990;28;20484;-81
2022/10/04 02:32:56;;;;;;;9.60;4.17;;;11.30;99.90;;;;;;5033811;28;20464;-81
2022/10/04 02:33:38;;;;;;;6.47;4.03;;;11.20;99.90;;;;;;5032878;28;20463;-81
2022/10/04 02:36:08;;;;;;;4.90;3.73;;;11.30;99.90;;;;;;5033520;28;20864;-81
2022/10/04 02:38:37;;;;;;;4.10;3.20;;;11.20;99.90;;;;;;5033596;28;20554;-80
2022/10/04 02:41:13;;;;;;;6.80;4.00;;;11.20;99.90;;;;;;5033097;28;20452;-81
2022/10/04 02:43:46;;;;;;;6.50;3.60;;;11.10;99.90;;;;;;5033218;28;20490;-81
2022/10/04 02:46:18;;;;;;;5.87;3.67;;;11.10;99.90;;;;;;5033019;28;20475;-81
2022/10/04 02:48:48;;;;;;;5.70;4.50;;;11.10;99.90;;;;;;5033690;28;20579;-81
2022/10/04 02:51:20;;;;;;;8.70;4.27;;;11.10;99.90;;;;;;5032709;28;20453;-81
2022/10/04 02:54:02;;;;;;;4.90;3.93;;;11.10;99.90;;;;;;5033179;28;20456;-80
2022/10/04 02:56:31;;;;;;;10.07;4.60;;;11.10;99.90;;;;;;5032831;28;20477;-80
2022/10/04 02:59:01;;;;;;;6.33;4.10;;;11.10;99.90;;;;;;5033086;28;20523;-80
2022/10/04 03:01:39;;;;;;;5.10;3.93;;;11.10;99.90;;;;;;5032572;28;20456;-81
2022/10/04 03:04:06;;;;;;;6.23;3.70;;;11.10;99.90;;;;;;5033650;28;20453;-80
2022/10/04 03:06:33;;;;;;;6.03;3.73;;;11.10;99.90;;;;;;5033052;28;20487;-81
2022/10/04 03:09:04;;;;;;;5.80;4.30;;;11.10;99.90;;;;;;5033161;28;20492;-80
2022/10/04 03:11:37;;;;;;;5.97;4.23;;;11.10;99.90;;;;;;5036371;28;20455;-81
2022/10/04 03:14:08;;;;;;;7.80;4.40;;;11.00;99.90;;;;;;5036775;28;20451;-80
2022/10/04 03:16:37;;;;;;;7.20;4.10;;;11.00;99.90;;;;;;5035746;28;20495;-81
2022/10/04 03:19:05;;;;;;;8.10;3.97;;;11.00;99.90;;;;;;5036444;28;20452;-81
2022/10/04 03:21:33;;;;;;;6.13;3.80;;;11.10;99.90;;;;;;5036841;28;20463;-80
2022/10/04 03:24:01;;;;;;;5.33;4.40;;;11.00;99.90;;;;;;5036409;28;20451;-81
2022/10/04 03:26:32;;;;;;;7.53;5.10;;;11.00;99.90;;;;;;5036640;28;20471;-81
2022/10/04 03:29:01;;;;;;;6.23;4.70;;;11.00;99.90;;;;;;5036427;28;20484;-81
2022/10/04 03:31:29;;;;;;;5.83;4.20;;;11.00;99.90;;;;;;5036610;28;20510;-81
2022/10/04 03:33:57;;;;;;;7.07;5.00;;;11.10;99.90;;;;;;5040481;28;20459;-81
2022/10/04 03:36:26;;;;;;;6.73;3.93;;;11.10;99.90;;;;;;5045599;28;20476;-82
2022/10/04 03:38:55;;;;;;;5.20;4.60;;;11.10;99.90;;;;;;5036160;28;20833;-81
2022/10/04 03:41:24;;;;;;;6.10;4.27;;;11.10;99.90;;;;;;5036682;28;20483;-81
2022/10/04 03:43:54;;;;;;;6.77;4.70;;;11.10;99.90;;;;;;5036334;28;20461;-81
2022/10/04 03:46:24;;;;;;;5.80;4.33;;;11.10;99.90;;;;;;5036135;28;20484;-80
2022/10/04 03:48:53;;;;;;;5.10;3.73;;;11.10;99.90;;;;;;5035678;28;20485;-81
2022/10/04 03:51:22;;;;;;;9.30;5.37;;;11.10;99.90;;;;;;5036226;28;20456;-80
2022/10/04 03:53:52;;;;;;;5.27;4.23;;;11.10;99.90;;;;;;5036119;28;20452;-81
2022/10/04 03:56:25;;;;;;;5.67;4.00;;;11.10;99.90;;;;;;5036321;28;20474;-81
2022/10/04 03:58:52;;;;;;;6.77;4.40;;;11.00;99.90;;;;;;5035548;28;20535;-81
2022/10/04 04:01:36;;;;;;;10.63;4.57;;;11.10;99.90;;;;;;5036177;28;20445;-81
2022/10/04 04:04:14;;;;;;;8.33;4.03;;;11.00;99.90;;;;;;5036000;28;20456;-81
2022/10/04 04:06:47;;;;;;;9.37;4.80;;;11.00;99.90;;;;;;5036269;28;20577;-81
2022/10/04 04:09:21;;;;;;;9.23;4.80;;;11.00;99.90;;;;;;5036332;28;20490;-82
2022/10/04 04:11:50;;;;;;;5.27;3.90;;;11.00;99.90;;;;;;5039146;28;20507;-82
2022/10/04 04:14:23;;;;;;;6.10;4.17;;;11.00;99.90;;;;;;5037215;28;20852;-80
2022/10/04 04:16:53;;;;;;;5.60;4.57;;;11.00;99.90;;;;;;5034706;28;20497;-80
2022/10/04 04:19:24;;;;;;;7.47;4.20;;;10.90;99.90;;;;;;5035435;28;20926;-81
2022/10/04 04:21:55;;;;;;;7.70;4.00;;;10.90;99.90;;;;;;5034956;28;20464;-81
2022/10/04 04:24:26;;;;;;;6.87;3.60;;;10.90;99.90;;;;;;5036386;28;20455;-81
2022/10/04 04:26:57;;;;;;;5.87;3.70;;;10.90;99.90;;;;;;5035813;28;20475;-80
2022/10/04 04:29:30;;;;;;;5.40;3.40;;;10.80;99.90;;;;;;5036203;28;20483;-81
2022/10/04 04:32:02;;;;;;;5.23;3.80;;;10.80;99.90;;;;;;5036430;28;20455;-81
2022/10/04 04:34:32;;;;;;;6.87;4.53;;;10.80;99.90;;;;;;5016795;28;20465;-79
2022/10/04 04:37:00;;;;;;;8.37;4.20;;;10.80;99.90;;;;;;5034195;28;21029;-82
2022/10/04 04:39:36;;;;;;;11.73;4.50;;;10.80;99.90;;;;;;5035621;28;20448;-81
2022/10/04 04:42:06;;;;;;;9.63;4.83;;;10.80;99.90;;;;;;5035449;28;20473;-82
2022/10/04 04:44:33;;;;;;;6.90;4.27;;;10.80;99.90;;;;;;5036728;28;20949;-85
2022/10/04 04:47:08;;;;;;;9.70;4.63;;;10.70;99.90;;;;;;5038968;28;20566;-85
2022/10/04 04:49:40;;;;;;;9.43;3.90;;;10.80;99.90;;;;;;5037433;28;20890;-85
2022/10/04 04:52:16;;;;;;;8.90;4.10;;;10.70;99.90;;;;;;5038256;28;20460;-84
2022/10/04 04:54:45;;;;;;;4.97;3.93;;;10.70;99.90;;;;;;5037452;28;20505;-85
2022/10/04 04:57:16;;;;;;;6.40;4.57;;;10.70;99.90;;;;;;5038193;28;20482;-85
2022/10/04 04:59:45;;;;;;;4.60;4.00;;;10.70;99.90;;;;;;5023792;28;20455;-84
2022/10/04 05:05:21;;;;;;;8.03;4.50;;;10.70;99.90;;;;;;5093628;28;20581;-84
2022/10/04 05:07:48;;;;;;;8.40;4.67;;;10.70;99.90;;;;;;5076738;28;20454;-84
2022/10/04 05:10:28;;;;;;;5.57;4.30;;;10.70;99.90;;;;;;5077729;28;20834;-84
2022/10/04 05:12:55;;;;;;;7.00;4.30;;;10.70;99.90;;;;;;5077338;28;20458;-84
2022/10/04 05:15:22;;;;;;;5.30;4.23;;;10.70;99.90;;;;;;5075798;28;20474;-84
2022/10/04 05:17:49;;;;;;;7.33;4.63;;;10.70;99.90;;;;;;5077664;28;20493;-83
2022/10/04 05:20:16;;;;;;;6.20;4.50;;;10.80;99.90;;;;;;5075529;28;20460;-84
2022/10/04 05:22:48;;;;;;;6.90;5.07;;;10.80;99.90;;;;;;5057510;28;20453;-84
2022/10/04 05:25:25;;;;;;;6.70;3.67;;;10.80;99.90;;;;;;5064473;28;20482;-84
2022/10/04 05:27:52;;;;;;;5.97;4.60;;;10.80;99.90;;;;;;5077087;28;20464;-84
2022/10/04 05:30:35;;;;;;;5.97;4.20;;;10.90;99.90;;;;;;5076515;28;20818;-84
2022/10/04 05:33:05;;;;;;;6.57;4.40;;;10.90;99.90;;;;;;5077287;28;20454;-84
2022/10/04 05:35:49;;;;;;;8.00;4.90;;;10.90;99.90;;;;;;5076605;28;20989;-83
2022/10/04 05:38:27;;;;;;;5.90;4.30;;;10.90;99.90;;;;;;5071781;28;20485;-84
2022/10/04 05:41:01;;;;;;;5.77;5.17;;;10.80;99.90;;;;;;5074323;28;20458;-84
2022/10/04 05:43:34;;;;;;;5.70;4.10;;;10.80;99.90;;;;;;5073823;28;20868;-84
2022/10/04 05:46:15;;;;;;;6.03;4.67;;;10.90;99.90;;;;;;5073119;28;20477;-84
2022/10/04 05:48:43;;;;;;;8.07;4.77;;;10.90;99.90;;;;;;5072747;28;20454;-84
2022/10/04 05:51:18;;;;;;;7.03;4.80;;;10.90;99.90;;;;;;5074365;28;20453;-85
2022/10/04 05:53:47;;;;;;;5.20;3.90;;;10.70;99.90;;;;;;5073462;28;20449;-85
2022/10/04 05:56:32;;;;;;;7.80;4.33;;;10.70;99.90;;;;;;5073640;28;20483;-85
2022/10/04 05:59:08;;;;;;;6.70;4.37;;;10.70;99.90;;;;;;5074397;28;20464;-85
2022/10/04 06:01:42;;;;;;;6.10;3.83;;;10.70;99.90;;;;;;5072938;28;20522;-84
2022/10/04 06:04:24;;;;;;;9.90;4.90;;;10.70;99.90;;;;;;5073484;28;20499;-85
2022/10/04 06:06:57;;;;;;;6.63;4.13;;;10.70;99.90;;;;;;5074423;28;20462;-83
2022/10/04 06:09:44;;;;;;;5.80;4.43;;;10.70;99.90;;;;;;5076759;28;20458;-86
2022/10/04 06:12:17;;;;;;;9.60;4.23;;;10.70;99.90;;;;;;5077465;28;20453;-85
2022/10/04 06:15:14;;;;;;;8.80;4.70;;;10.80;99.90;;;;;;5074533;28;20455;-85
2022/10/04 06:18:03;;;;;;;6.20;5.10;;;10.70;99.90;;;;;;5062922;28;20442;-85
2022/10/04 06:20:54;;;;;;;6.53;4.63;;;10.80;99.90;;;;;;5062619;28;20451;-84
2022/10/04 06:23:22;;;;;;;7.50;5.00;;;10.90;99.90;;;;;;5062245;28;20478;-83
2022/10/04 06:25:54;;;;;;;6.20;4.50;;;10.80;99.90;;;;;;5066865;28;20471;-85
2022/10/04 06:28:25;;;;;;;7.80;4.17;;;10.80;99.90;;;;;;5067593;28;20451;-85
2022/10/04 06:31:11;;;;;;;9.23;5.23;;;10.80;99.90;;;;;;5066948;28;20969;-84
2022/10/04 06:34:03;;;;;;;9.87;4.43;;;10.80;99.90;;;;;;5057130;28;20466;-85
2022/10/04 06:36:52;;;;;;;8.23;4.30;;;10.90;99.90;;;;;;5053018;28;20577;-84
2022/10/04 06:39:33;;;;;;;5.63;4.47;;;10.90;99.90;;;;;;5047326;28;20547;-84
2022/10/04 06:42:32;;;;;;;9.40;5.43;;;11.00;99.90;;;;;;5053716;28;20553;-85
2022/10/04 06:45:21;;;;;;;8.17;4.30;;;11.00;99.90;;;;;;5064640;28;20525;-85
2022/10/04 06:48:14;;;;;;;6.33;4.17;;;11.00;99.90;;;;;;5059911;28;20466;-84
2022/10/04 06:50:48;;;;;;;7.80;4.70;;;11.00;99.90;;;;;;5065460;28;20459;-85
2022/10/04 06:53:25;;;;;;;12.00;5.37;;;11.10;99.90;;;;;;5064705;28;20489;-85
2022/10/04 06:56:07;;;;;;;6.27;4.60;;;11.20;99.90;;;;;;5064173;28;20526;-85
2022/10/04 06:59:18;;;;;;;8.60;4.50;;;11.20;99.90;;;;;;5065063;28;20456;-85
2022/10/04 07:01:50;;;;;;;7.57;4.77;;;11.20;99.90;;;;;;5064855;28;20502;-85
2022/10/04 07:04:24;;;;;;;7.57;3.60;;;11.30;99.90;;;;;;5064110;28;21026;-85
2022/10/04 07:07:22;;;;;;;6.83;5.00;;;11.40;99.90;;;;;;5064045;28;20469;-84
2022/10/04 07:09:45;;;;;;;6.77;4.20;;;11.40;99.90;;;;;;5064057;28;20441;-85
2022/10/04 07:12:15;;;;;;;7.80;4.40;;;11.50;99.90;;;;;;5063343;28;20458;-87
2022/10/04 07:14:49;;;;;;;5.97;4.07;;;11.50;99.90;;;;;;5061959;28;20447;-86
2022/10/04 07:17:21;;;;;;;7.63;3.40;;;11.60;99.90;;;;;;5060908;28;20505;-86
2022/10/04 07:19:49;;;;;;;5.50;4.00;;;11.70;99.90;;;;;;5061138;28;20461;-86
2022/10/04 07:22:22;;;;;;;4.67;3.00;;;11.80;99.90;;;;;;5062307;28;20458;-85
2022/10/04 07:25:05;;;;;;;5.73;3.77;;;11.90;99.90;;;;;;5061953;28;20507;-86
2022/10/04 07:27:36;;;;;;;6.50;4.00;;;12.00;99.90;;;;;;5061282;28;20451;-85
2022/10/04 07:30:07;;;;;;;5.77;4.13;;;12.00;99.90;;;;;;5061384;28;20471;-86
2022/10/04 07:32:38;;;;;;;6.27;4.10;;;12.20;99.90;;;;;;5061563;28;20965;-86
2022/10/04 07:35:13;;;;;;;4.40;3.20;;;12.20;99.90;;;;;;5062147;28;20923;-85
2022/10/04 07:37:49;;;;;;;5.40;3.57;;;12.30;99.90;;;;;;5061475;28;20466;-88
2022/10/04 07:40:22;;;;;;;5.40;4.10;;;12.50;99.90;;;;;;5042320;28;20459;-86
2022/10/04 07:42:58;;;;;;;7.27;3.97;;;12.60;99.90;;;;;;5059285;28;20479;-86
2022/10/04 07:45:31;;;;;;;7.73;4.20;;;12.60;99.90;;;;;;5062245;28;20514;-85
2022/10/04 07:48:14;;;;;;;8.73;4.70;;;12.60;99.90;;;;;;5062344;28;20836;-86
2022/10/04 07:50:48;;;;;;;8.73;5.20;;;12.80;99.90;;;;;;5042402;28;20464;-85
2022/10/04 07:53:18;;;;;;;4.87;3.63;;;12.80;99.90;;;;;;5061855;28;20453;-85
2022/10/04 07:55:52;;;;;;;7.40;4.60;;;12.90;99.90;;;;;;5062157;28;21023;-86
2022/10/04 07:58:35;;;;;;;6.03;4.03;;;13.00;99.90;;;;;;5052921;28;20457;-85
2022/10/04 08:01:09;;;;;;;5.87;4.03;;;13.10;99.90;;;;;;5062525;28;20461;-85
2022/10/04 08:03:55;;;;;;;7.57;4.20;;;13.20;99.90;;;;;;5062354;28;20467;-86
2022/10/04 08:06:33;;;;;;;9.33;4.30;;;13.20;99.90;;;;;;5061411;28;20480;-86
2022/10/04 08:09:39;;;;;;;7.30;3.30;;;13.30;99.90;;;;;;5059552;28;20460;-86
2022/10/04 08:12:15;;;;;;;8.87;3.83;;;13.40;99.90;;;;;;5009079;28;20475;-85
2022/10/04 08:14:54;;;;;;;7.70;3.63;;;13.40;99.90;;;;;;5005474;28;20455;-86
2022/10/04 08:17:38;;;;;;;5.13;3.83;;;13.40;99.90;;;;;;5041063;28;20448;-86
2022/10/04 08:20:22;;;;;;;6.60;4.00;;;13.40;99.90;;;;;;5058612;28;20463;-85
2022/10/04 08:23:04;;;;;;;8.10;4.13;;;13.30;99.90;;;;;;5054652;28;21960;-86
2022/10/04 08:25:42;;;;;;;7.40;4.70;;;13.50;99.90;;;;;;5051309;28;20494;-86
2022/10/04 08:31:20;;;;;;;6.67;3.83;;;13.60;99.90;;;;;;5061167;28;20446;-86
2022/10/04 08:34:03;;;;;;;8.00;4.50;;;13.60;99.90;;;;;;5060168;28;20459;-86
2022/10/04 08:36:42;;;;;;;10.90;5.60;;;13.60;99.90;;;;;;5060363;28;21016;-86
2022/10/04 08:39:24;;;;;;;8.40;4.50;;;13.70;99.90;;;;;;5059781;28;20463;-86
2022/10/04 08:42:30;;;;;;;8.73;4.73;;;13.70;99.90;;;;;;5059412;28;20956;-85
2022/10/04 08:45:47;;;;;;;8.63;5.20;;;13.60;99.90;;;;;;5026580;28;20484;-86
2022/10/04 08:48:49;;;;;;;8.50;5.47;;;13.60;99.90;;;;;;5061350;28;20465;-87
2022/10/04 08:52:03;;;;;;;11.73;6.27;;;13.60;99.90;;;;;;5061071;28;20443;-86
2022/10/04 08:54:59;;;;;;;10.80;4.50;;;13.80;99.90;;;;;;5057591;28;20467;-85
2022/10/04 08:58:05;;;;;;;8.50;4.10;;;14.00;99.90;;;;;;5037269;28;20833;-88
2022/10/04 09:00:47;;;;;;;6.30;3.77;;;14.10;99.90;;;;;;5035601;28;20485;-86
2022/10/04 09:03:49;;;;;;;6.90;3.97;;;14.20;99.90;;;;;;5056807;28;20469;-86
2022/10/04 09:06:32;;;;;;;8.60;4.97;;;14.30;99.90;;;;;;5054762;28;20473;-86
2022/10/04 09:09:50;;;;;;;4.90;3.90;;;14.40;99.90;;;;;;5055206;28;20457;-86
2022/10/04 09:12:43;;;;;;;5.63;3.83;;;14.50;99.90;;;;;;5055166;28;20458;-86
2022/10/04 09:15:26;;;;;;;7.27;3.90;;;14.60;99.90;;;;;;5048233;28;20519;-86
2022/10/04 09:17:57;;;;;;;6.37;3.80;;;14.60;99.90;;;;;;5035443;28;20451;-85
2022/10/04 09:20:41;;;;;;;10.77;3.43;;;14.60;99.90;;;;;;5034826;28;20460;-86
2022/10/04 09:23:19;;;;;;;5.23;3.90;;;14.80;99.90;;;;;;5032938;28;20956;-86
2022/10/04 09:26:00;;;;;;;4.83;3.10;;;14.90;99.90;;;;;;5036261;28;20578;-86
2022/10/04 09:29:08;;;;;;;4.03;3.43;;;15.00;99.90;;;;;;5053014;28;20519;-86
2022/10/04 09:32:12;;;;;;;7.80;3.90;;;15.10;99.90;;;;;;5053031;28;20531;-86
2022/10/04 09:34:57;;;;;;;9.80;3.90;;;15.10;99.90;;;;;;5052196;28;20973;-86
2022/10/04 09:37:35;;;;;;;6.37;3.90;;;15.30;99.90;;;;;;5052175;28;20459;-87
2022/10/04 09:40:36;;;;;;;8.30;3.20;;;15.60;99.90;;;;;;5051194;28;20466;-87
2022/10/04 09:43:23;;;;;;;8.20;3.03;;;15.90;99.90;;;;;;5051665;28;21002;-87
2022/10/04 09:46:03;;;;;;;6.23;3.10;;;16.10;99.90;;;;;;5052956;28;20493;-87
2022/10/04 09:48:36;;;;;;;7.07;3.80;;;16.50;99.90;;;;;;5060637;28;20481;-87
2022/10/04 09:51:30;;;;;;;6.13;3.70;;;16.60;99.90;;;;;;5062244;28;20455;-86
2022/10/04 09:54:23;;;;;;;5.07;3.07;;;16.90;99.90;;;;;;5056188;28;20455;-86
2022/10/04 09:57:08;;;;;;;9.87;4.00;;;17.20;99.90;;;;;;5027308;28;20488;-87
2022/10/04 10:00:09;;;;;;;7.63;3.60;;;17.50;99.90;;;;;;5035820;28;20537;-87
2022/10/04 10:03:17;;;;;;;4.90;3.03;;;17.90;99.90;;;;;;5051259;28;20968;-88
2022/10/04 10:05:56;;;;;;;7.87;3.23;;;18.20;99.90;;;;;;5052149;28;20493;-87
2022/10/04 10:08:31;;;;;;;4.73;2.70;;;18.30;99.90;;;;;;5055708;28;20983;-87
2022/10/04 10:14:29;;;;;;;6.17;3.07;;;19.10;99.90;;;;;;5035625;28;21032;-88
2022/10/04 10:17:04;;;;;;;6.17;3.03;;;19.40;99.90;;;;;;5052863;28;20468;-87
2022/10/04 10:19:53;;;;;;;4.80;2.60;;;19.60;99.90;;;;;;5055227;28;20511;-87
2022/10/04 10:22:51;;;;;;;5.17;3.40;;;20.00;99.90;;;;;;5053711;28;20544;-87
2022/10/04 10:25:42;;;;;;;6.20;2.73;;;20.00;99.90;;;;;;5062359;28;20550;-87
2022/10/04 10:28:30;;;;;;;4.20;2.83;;;20.40;99.90;;;;;;5055727;28;20535;-87
2022/10/04 10:31:12;;;;;;;6.30;3.00;;;20.60;99.90;;;;;;5045125;28;20483;-88
2022/10/04 10:34:12;;;;;;;7.43;3.00;;;20.70;99.90;;;;;;5060463;28;20542;-88
2022/10/04 10:36:49;;;;;;;6.97;2.87;;;20.90;99.90;;;;;;5020051;28;20475;-85
2022/10/04 10:39:33;;;;;;;4.00;2.27;;;20.70;99.90;;;;;;5057369;28;20461;-85
2022/10/04 10:42:26;;;;;;;3.83;2.40;;;20.80;99.90;;;;;;5054955;28;20462;-85
2022/10/04 10:45:16;;;;;;;4.70;2.50;;;20.30;99.90;;;;;;5060323;28;20495;-85
2022/10/04 10:47:52;;;;;;;5.73;2.30;;;20.60;99.90;;;;;;5061039;28;20452;-86
2022/10/04 10:50:58;;;;;;;4.30;2.60;;;21.10;99.90;;;;;;5058850;28;20459;-86
2022/10/04 10:54:15;;;;;;;8.17;2.70;;;21.30;99.90;;;;;;5050947;28;20455;-85
2022/10/04 10:57:05;;;;;;;3.97;2.30;;;21.70;99.90;;;;;;5045560;28;20475;-85
2022/10/04 11:00:18;;;;;;;8.07;3.10;;;21.60;99.90;;;;;;5062276;28;20462;-85
2022/10/04 11:03:20;;;;;;;4.53;2.60;;;21.70;99.90;;;;;;5047510;28;20515;-86
2022/10/04 11:06:19;;;;;;;5.33;2.20;;;22.10;99.90;;;;;;5056408;28;20491;-85
2022/10/04 11:09:33;;;;;;;6.13;3.10;;;22.30;99.90;;;;;;5063518;28;20448;-85
2022/10/04 11:12:41;;;;;;;6.37;2.20;;;22.50;99.90;;;;;;5062944;28;20982;-85
2022/10/04 11:16:06;;;;;;;4.53;2.47;;;22.50;99.90;;;;;;5014597;28;20588;-85
2022/10/04 11:19:06;;;;;;;4.20;2.33;;;22.40;99.90;;;;;;5063512;28;20456;-84
2022/10/04 11:22:17;;;;;;;5.60;2.13;;;22.40;99.90;;;;;;5063159;28;20475;-85
2022/10/04 11:25:24;;;;;;;5.10;2.50;;;22.60;99.90;;;;;;5061191;28;20476;-85
2022/10/04 11:28:02;;;;;;;4.30;2.37;;;22.80;99.90;;;;;;5014097;28;20452;-84
2022/10/04 11:30:50;;;;;;;4.93;2.20;;;23.10;99.90;;;;;;5053179;28;20487;-85
2022/10/04 11:33:54;;;;;;;4.37;2.30;;;23.50;99.90;;;;;;5066218;28;20947;-85
2022/10/04 11:36:37;;;;;;;5.87;2.40;;;23.50;99.90;;;;;;5055952;28;20467;-85
2022/10/04 11:39:29;;;;;;;5.17;2.37;;;23.80;99.90;;;;;;5061561;28;20440;-84
2022/10/04 11:42:04;;;;;;;5.30;2.60;;;24.00;99.90;;;;;;5051291;28;20443;-84
2022/10/04 11:44:58;;;;;;;5.50;2.30;;;24.00;99.90;;;;;;5057030;28;20454;-85
2022/10/04 11:47:42;;;;;;;4.33;2.73;;;24.00;99.90;;;;;;5050058;28;20457;-85
2022/10/04 11:50:24;;;;;;;3.50;2.40;;;24.50;99.90;;;;;;5064597;28;20468;-85
2022/10/04 11:53:20;;;;;;;4.20;2.27;;;24.70;99.90;;;;;;5065771;28;20475;-84
2022/10/04 11:56:04;;;;;;;4.03;2.13;;;25.00;99.90;;;;;;5059392;28;20490;-85
2022/10/04 11:58:52;;;;;;;3.10;2.20;;;25.20;99.90;;;;;;5065755;28;20455;-84
2022/10/04 12:01:39;;;;;;;3.40;1.70;;;25.10;99.90;;;;;;5066739;28;20452;-84
2022/10/04 12:04:46;;;;;;;3.80;1.90;;;25.30;99.90;;;;;;5067687;28;20463;-84
2022/10/04 12:07:33;;;;;;;5.90;2.40;;;25.40;99.90;;;;;;5066142;28;20507;-85
2022/10/04 12:10:22;;;;;;;5.73;2.00;;;25.30;99.90;;;;;;5051546;28;20474;-85
2022/10/04 12:13:27;;;;;;;4.10;2.33;;;25.60;99.90;;;;;;5042053;28;20445;-84
2022/10/04 12:16:17;;;;;;;7.20;2.60;;;25.80;99.90;;;;;;5043346;28;20550;-83
2022/10/04 12:19:14;;;;;;;5.70;2.20;;;25.60;99.90;;;;;;5065769;28;20937;-84
2022/10/04 12:21:53;;;;;;;4.63;2.20;;;25.60;99.90;;;;;;5044358;28;20524;-85
2022/10/04 12:24:56;;;;;;;2.63;1.57;;;25.80;99.90;;;;;;5046974;28;20487;-85
2022/10/04 12:28:00;;;;;;;3.60;2.13;;;25.90;99.90;;;;;;5064762;28;20486;-84
2022/10/04 12:30:43;;;;;;;3.60;1.80;;;26.10;99.90;;;;;;5063087;28;20492;-84
2022/10/04 12:33:21;;;;;;;3.20;1.73;;;26.20;99.90;;;;;;5066283;28;20459;-84
2022/10/04 12:35:58;;;;;;;3.37;1.80;;;26.10;99.90;;;;;;5066085;28;20463;-86
2022/10/04 12:38:57;;;;;;;5.90;2.27;;;26.40;99.90;;;;;;5067247;28;20475;-83
2022/10/04 12:41:34;;;;;;;7.50;2.67;;;26.50;99.90;;;;;;5066940;28;20512;-84
2022/10/04 12:44:21;;;;;;;5.03;2.53;;;26.80;99.90;;;;;;5063475;28;20435;-84
2022/10/04 12:47:00;;;;;;;4.40;2.70;;;26.90;99.90;;;;;;5064818;28;20523;-85
2022/10/04 12:49:39;;;;;;;3.40;1.90;;;26.80;99.90;;;;;;5065337;28;20453;-83
2022/10/04 12:52:15;;;;;;;4.53;2.30;;;26.90;99.90;;;;;;5055873;28;20839;-85
2022/10/04 12:54:45;;;;;;;4.43;2.73;;;26.90;97.70;;;;;;5062942;28;20447;-84
2022/10/04 12:57:46;;;;;;;4.33;1.87;;;26.80;95.70;;;;;;5063297;28;20444;-84
2022/10/04 13:00:23;;;;;;;5.07;1.80;;;26.70;96.50;;;;;;5032442;28;20509;-84
2022/10/04 13:03:13;;;;;;;3.77;2.33;;;26.80;94.40;;;;;;5061301;28;20509;-87
2022/10/04 13:05:51;;;;;;;4.70;2.17;;;27.00;98.30;;;;;;5062932;28;20509;-82
2022/10/04 13:08:27;;;;;;;3.87;2.23;;;26.70;97.40;;;;;;5056825;28;20459;-82
2022/10/04 13:11:19;;;;;;;3.00;1.77;;;26.90;92.50;;;;;;5061725;28;20835;-83
2022/10/04 13:14:14;;;;;;;14.23;2.60;;;26.60;94.20;;;;;;5064799;28;20444;-83
2022/10/04 13:16:55;;;;;;;4.17;2.10;;;26.50;92.00;;;;;;5061207;28;20962;-85
2022/10/04 13:19:29;;;;;;;3.33;2.13;;;26.60;96.00;;;;;;5064877;28;20462;-84
2022/10/04 13:22:31;;;;;;;4.33;1.80;;;26.30;90.80;;;;;;5064387;28;20455;-83
2022/10/04 13:25:14;;;;;;;3.53;2.10;;;26.70;95.60;;;;;;5064938;28;20450;-85
2022/10/04 13:27:51;;;;;;;2.60;1.53;;;26.80;98.20;;;;;;5070862;28;20451;-84
2022/10/04 13:30:33;;;;;;;3.40;1.93;;;26.60;92.90;;;;;;5067873;28;20578;-85
2022/10/04 13:33:25;;;;;;;6.63;2.50;;;26.90;94.80;;;;;;5069947;28;20456;-85
2022/10/04 13:36:02;;;;;;;4.23;2.00;;;26.80;98.30;;;;;;5073289;28;20474;-85
2022/10/04 13:38:54;;;;;;;6.83;1.90;;;26.90;95.70;;;;;;5070803;28;20451;-84
2022/10/04 13:41:42;;;;;;;4.83;2.40;;;27.20;99.50;;;;;;5061578;28;20448;-85
2022/10/04 13:44:46;;;;;;;4.43;2.13;;;27.10;98.50;;;;;;5068108;28;20993;-82
2022/10/04 13:47:37;;;;;;;3.50;2.50;;;26.90;97.80;;;;;;5067952;28;20491;-83
2022/10/04 13:50:34;;;;;;;2.77;1.60;;;26.80;95.30;;;;;;5065520;28;20959;-84
2022/10/04 13:59:10;;;;;;;4.00;2.00;;;25.90;93.30;;;;;;5063932;28;20432;-83
2022/10/04 14:02:22;;;;;;;5.13;1.63;;;25.50;95.50;;;;;;5064833;28;20490;-84
2022/10/04 14:05:18;;;;;;;3.63;1.63;;;24.60;93.80;;;;;;5064123;28;20975;-84
2022/10/04 14:07:58;;;;;;;5.13;2.10;;;23.90;92.30;;;;;;5063845;28;20460;-83
2022/10/04 14:11:07;;;;;;;3.80;1.73;;;23.00;91.40;;;;;;5063339;28;20494;-83